Time;durP1;ratioP1;P1;durP2;ratioP2;P2;SDS_P1;SDS_P2;PMS_P1;PMS_P2;Temp;Humidity;BMP_temperature;BMP_pressure;BME280_temperature;BME280_humidity;BME280_pressure;Samples;Min_cycle;Max_cycle;Signal;HPM_P1;HPM_P2
2022/08/22 00:01:07;;;;;;;17.45;5.03;;;16.40;99.90;;;;;;5090235;28;20411;-74
2022/08/22 00:03:53;;;;;;;17.83;4.13;;;16.40;99.90;;;;;;5089644;28;20464;-73
2022/08/22 00:06:48;;;;;;;16.80;5.10;;;16.40;99.90;;;;;;5087669;28;20411;-73
2022/08/22 00:09:34;;;;;;;14.23;4.60;;;16.40;99.90;;;;;;5079430;28;20075;-72
2022/08/22 00:12:23;;;;;;;10.65;3.90;;;16.40;99.90;;;;;;5084500;28;20066;-75
2022/08/22 00:15:13;;;;;;;16.42;4.35;;;16.40;99.90;;;;;;5071167;28;20089;-73
2022/08/22 00:17:51;;;;;;;12.98;4.57;;;16.40;99.90;;;;;;5086932;28;20044;-75
2022/08/22 00:20:19;;;;;;;14.73;4.38;;;16.30;99.90;;;;;;5087340;28;20048;-74
2022/08/22 00:22:56;;;;;;;10.52;3.63;;;16.30;99.90;;;;;;5069147;28;20090;-72
2022/08/22 00:25:53;;;;;;;13.07;4.20;;;16.20;99.90;;;;;;5092224;28;20050;-73
2022/08/22 00:28:40;;;;;;;13.43;3.78;;;16.20;99.90;;;;;;5066557;28;20031;-74
2022/08/22 00:31:16;;;;;;;13.23;3.70;;;16.30;99.90;;;;;;5086259;28;20051;-73
2022/08/22 00:33:51;;;;;;;13.90;3.95;;;16.20;99.90;;;;;;5090811;28;20054;-73
2022/08/22 00:36:40;;;;;;;13.32;3.70;;;16.20;99.90;;;;;;5087095;28;20044;-75
2022/08/22 00:39:50;;;;;;;9.57;4.00;;;16.20;99.90;;;;;;5086750;28;20035;-74
2022/08/22 00:42:46;;;;;;;16.85;3.80;;;16.20;99.90;;;;;;5032190;28;20463;-75
2022/08/22 00:45:30;;;;;;;10.98;3.83;;;16.20;99.90;;;;;;5018915;28;20045;-73
2022/08/22 00:48:09;;;;;;;12.57;4.10;;;16.20;99.90;;;;;;5032186;28;20045;-74
2022/08/22 00:50:52;;;;;;;16.38;4.03;;;16.20;99.90;;;;;;5028728;28;20062;-75
2022/08/22 00:53:39;;;;;;;11.50;4.28;;;16.10;99.90;;;;;;5027571;28;20163;-75
2022/08/22 00:56:11;;;;;;;13.55;4.18;;;16.20;99.90;;;;;;5034837;28;20530;-75
2022/08/22 00:59:11;;;;;;;16.83;4.32;;;16.10;99.90;;;;;;5026205;28;20049;-74
2022/08/22 01:01:47;;;;;;;13.23;4.32;;;16.20;99.90;;;;;;5026950;28;20396;-75
2022/08/22 01:04:30;;;;;;;12.82;3.88;;;16.20;99.90;;;;;;5021205;28;20604;-75
2022/08/22 01:07:10;;;;;;;13.90;4.00;;;16.20;99.90;;;;;;5028286;28;20099;-74
2022/08/22 01:09:45;;;;;;;11.50;3.90;;;16.20;99.90;;;;;;5029523;28;20045;-74
2022/08/22 01:12:29;;;;;;;;;;;16.20;99.90;;;;;;5031357;28;20061;-76
2022/08/22 01:15:04;;;;;;;9.13;3.60;;;16.20;99.90;;;;;;5027930;28;20528;-74
2022/08/22 01:17:53;;;;;;;12.25;3.85;;;16.10;99.90;;;;;;5029715;28;20041;-74
2022/08/22 01:20:43;;;;;;;11.07;4.13;;;16.20;99.90;;;;;;5079378;28;20048;-73
2022/08/22 01:23:40;;;;;;;8.95;4.15;;;16.10;99.90;;;;;;5071242;28;20363;-74
2022/08/22 01:26:27;;;;;;;10.75;3.97;;;16.10;99.90;;;;;;5081653;28;20032;-74
2022/08/22 01:29:26;;;;;;;10.85;3.95;;;16.10;99.90;;;;;;5084769;28;20036;-74
2022/08/22 01:31:55;;;;;;;7.43;3.53;;;16.10;99.90;;;;;;5060470;28;20047;-75
2022/08/22 01:34:48;;;;;;;10.98;3.80;;;16.00;99.90;;;;;;5085762;28;20043;-74
2022/08/22 01:37:58;;;;;;;10.52;3.60;;;16.10;99.90;;;;;;5084560;28;20055;-74
2022/08/22 01:40:28;;;;;;;11.30;3.72;;;16.10;99.90;;;;;;5073929;28;20124;-75
2022/08/22 01:43:15;;;;;;;8.85;3.72;;;16.10;99.90;;;;;;5065853;27;20123;-74
2022/08/22 01:46:05;;;;;;;16.33;4.20;;;16.10;99.90;;;;;;5063824;28;20044;-73
2022/08/22 01:48:43;;;;;;;15.10;4.35;;;16.10;99.90;;;;;;5086746;28;20047;-73
2022/08/22 01:51:27;;;;;;;8.32;4.03;;;16.10;99.90;;;;;;5082584;28;20032;-74
2022/08/22 01:54:12;;;;;;;12.55;4.07;;;16.10;99.90;;;;;;5086124;28;20066;-73
2022/08/22 01:56:42;;;;;;;10.55;3.97;;;16.10;99.90;;;;;;5086789;28;20116;-74
2022/08/22 01:59:19;;;;;;;8.35;3.90;;;16.10;99.90;;;;;;5070778;28;20027;-74
2022/08/22 02:01:57;;;;;;;10.88;4.13;;;16.10;99.90;;;;;;5077112;28;20040;-74
2022/08/22 02:04:51;;;;;;;9.50;4.13;;;16.10;99.90;;;;;;5070633;28;20044;-73
2022/08/22 02:07:23;;;;;;;8.00;3.40;;;16.10;99.90;;;;;;5086216;28;20517;-73
2022/08/22 02:10:07;;;;;;;6.20;3.50;;;16.10;99.90;;;;;;5096797;28;20036;-74
2022/08/22 02:12:54;;;;;;;7.43;3.42;;;16.00;99.90;;;;;;5083514;28;21609;-75
2022/08/22 02:15:46;;;;;;;7.75;3.53;;;16.00;99.90;;;;;;5084762;28;20065;-74
2022/08/22 02:18:19;;;;;;;13.35;4.38;;;16.00;99.90;;;;;;5084571;28;20032;-76
2022/08/22 02:21:20;;;;;;;8.52;3.63;;;15.90;99.90;;;;;;5063456;28;20526;-73
2022/08/22 02:23:57;;;;;;;7.25;3.95;;;15.90;99.90;;;;;;5083570;28;20036;-74
2022/08/22 02:26:45;;;;;;;8.90;3.97;;;15.80;99.90;;;;;;5084240;28;20084;-73
2022/08/22 02:29:47;;;;;;;8.73;4.32;;;15.80;99.90;;;;;;5079806;28;20040;-73
2022/08/22 02:32:25;;;;;;;7.20;4.45;;;15.80;99.90;;;;;;5065411;28;20036;-73
2022/08/22 02:35:04;;;;;;;12.77;4.65;;;15.80;99.90;;;;;;5080129;28;20032;-74
2022/08/22 02:37:47;;;;;;;12.93;5.15;;;15.70;99.90;;;;;;5078147;28;20039;-75
2022/08/22 02:40:29;;;;;;;10.98;5.03;;;15.70;99.90;;;;;;5082779;28;20051;-73
2022/08/22 02:43:08;;;;;;;10.82;4.55;;;15.70;99.90;;;;;;5082443;28;20441;-75
2022/08/22 02:45:56;;;;;;;9.80;4.53;;;15.60;99.90;;;;;;5080538;28;20048;-74
2022/08/22 02:48:49;;;;;;;8.95;4.05;;;15.50;99.90;;;;;;5083391;28;20035;-75
2022/08/22 02:51:52;;;;;;;10.98;4.35;;;15.50;99.90;;;;;;5081031;28;20073;-75
2022/08/22 02:54:35;;;;;;;10.30;4.20;;;15.50;99.90;;;;;;5079486;28;20150;-74
2022/08/22 02:57:13;;;;;;;7.22;4.35;;;15.40;99.90;;;;;;5072136;28;20074;-74
2022/08/22 02:59:57;;;;;;;10.18;4.10;;;15.30;99.90;;;;;;5080532;28;20491;-76
2022/08/22 03:02:37;;;;;;;7.28;4.38;;;15.30;99.90;;;;;;5081797;28;20036;-74
2022/08/22 03:05:22;;;;;;;6.70;4.30;;;15.20;99.90;;;;;;5080239;28;20036;-75
2022/08/22 03:08:24;;;;;;;8.43;4.23;;;15.20;99.90;;;;;;5063569;28;20034;-75
2022/08/22 03:11:23;;;;;;;11.73;4.28;;;15.10;99.90;;;;;;5051876;28;20387;-74
2022/08/22 03:13:53;;;;;;;11.18;4.53;;;15.10;99.90;;;;;;5065652;28;20032;-73
2022/08/22 03:16:32;;;;;;;8.77;4.20;;;15.00;99.90;;;;;;5079357;28;20075;-74
2022/08/22 03:19:02;;;;;;;8.98;3.80;;;15.00;99.90;;;;;;5082916;28;20044;-74
2022/08/22 03:21:41;;;;;;;11.15;4.20;;;14.90;99.90;;;;;;5086174;28;20085;-76
2022/08/22 03:24:13;;;;;;;8.73;4.28;;;14.90;99.90;;;;;;5082744;28;20047;-75
2022/08/22 03:26:49;;;;;;;12.02;4.25;;;14.90;99.90;;;;;;5084245;28;20055;-75
2022/08/22 03:29:24;;;;;;;7.78;3.78;;;14.80;99.90;;;;;;5069167;28;20055;-73
2022/08/22 03:32:14;;;;;;;8.93;4.28;;;14.80;99.90;;;;;;5100449;28;20047;-72
2022/08/22 03:34:56;;;;;;;7.07;4.00;;;14.80;99.90;;;;;;5069667;28;20145;-74
2022/08/22 03:37:36;;;;;;;8.80;3.88;;;14.70;99.90;;;;;;5087192;28;20041;-73
2022/08/22 03:40:18;;;;;;;7.22;3.70;;;14.70;99.90;;;;;;5093174;28;20047;-75
2022/08/22 03:42:53;;;;;;;8.60;3.80;;;14.70;99.90;;;;;;5093189;28;20040;-74
2022/08/22 03:45:33;;;;;;;10.15;3.72;;;14.60;99.90;;;;;;5092179;28;20040;-74
2022/08/22 03:48:33;;;;;;;6.38;3.55;;;14.60;99.90;;;;;;5093403;28;20040;-74
2022/08/22 03:51:02;;;;;;;16.58;4.80;;;14.60;99.90;;;;;;5084594;28;20479;-76
2022/08/22 03:53:39;;;;;;;7.78;3.53;;;14.60;99.90;;;;;;5086389;28;20079;-74
2022/08/22 03:56:52;;;;;;;5.07;3.22;;;14.50;99.90;;;;;;5082960;28;21058;-74
2022/08/22 03:59:57;;;;;;;4.68;3.25;;;14.50;99.90;;;;;;5087404;28;20474;-75
2022/08/22 04:02:58;;;;;;;11.60;3.95;;;14.50;99.90;;;;;;5083372;28;20048;-75
2022/08/22 04:05:48;;;;;;;8.02;3.60;;;14.40;99.90;;;;;;5086192;28;20059;-74
2022/08/22 04:09:03;;;;;;;9.43;3.45;;;14.40;99.90;;;;;;5073111;28;20036;-75
2022/08/22 04:12:02;;;;;;;9.38;5.38;;;14.40;99.90;;;;;;5085354;28;20043;-74
2022/08/22 04:15:06;;;;;;;11.60;4.40;;;14.40;99.90;;;;;;5086125;28;20083;-74
2022/08/22 04:17:50;;;;;;;8.25;4.32;;;14.40;99.90;;;;;;5085171;28;20040;-75
2022/08/22 04:20:43;;;;;;;12.60;5.90;;;14.40;99.90;;;;;;5087729;28;20051;-74
2022/08/22 04:23:26;;;;;;;15.63;5.30;;;14.40;99.90;;;;;;5087908;28;20064;-74
2022/08/22 04:26:00;;;;;;;5.95;3.80;;;14.60;99.90;;;;;;5085323;28;20068;-74
2022/08/22 04:28:38;;;;;;;5.47;3.75;;;14.40;99.90;;;;;;5086737;28;20951;-74
2022/08/22 04:31:07;;;;;;;9.57;3.72;;;14.40;99.90;;;;;;5088521;28;20072;-75
2022/08/22 04:34:11;;;;;;;10.15;4.55;;;14.40;99.90;;;;;;5092943;28;20032;-74
2022/08/22 04:37:08;;;;;;;8.98;4.35;;;14.40;99.90;;;;;;5052391;28;20048;-74
2022/08/22 04:39:49;;;;;;;8.38;4.38;;;14.40;99.90;;;;;;5034487;28;20044;-75
2022/08/22 04:42:39;;;;;;;7.13;4.47;;;14.40;99.90;;;;;;5049537;28;20317;-75
2022/08/22 04:45:12;;;;;;;13.05;4.50;;;14.50;99.90;;;;;;5052465;28;20345;-75
2022/08/22 04:47:43;;;;;;;12.07;4.50;;;14.40;99.90;;;;;;5045078;28;20070;-75
2022/08/22 04:50:26;;;;;;;12.10;4.68;;;14.40;99.90;;;;;;5066683;28;20214;-75
2022/08/22 04:53:07;;;;;;;10.70;5.00;;;14.40;99.90;;;;;;5053832;28;20060;-73
2022/08/22 04:55:53;;;;;;;7.18;4.00;;;14.50;99.90;;;;;;5046413;28;20036;-74
2022/08/22 04:58:27;;;;;;;10.07;4.60;;;14.40;99.90;;;;;;5065379;28;20036;-75
2022/08/22 05:01:11;;;;;;;9.77;4.57;;;14.50;99.90;;;;;;5048486;28;20037;-74
2022/08/22 05:03:50;;;;;;;12.15;5.07;;;14.50;99.90;;;;;;5045817;28;20163;-75
2022/08/22 05:06:18;;;;;;;13.00;5.47;;;14.50;99.90;;;;;;5045826;28;20472;-74
2022/08/22 05:08:46;;;;;;;11.02;4.75;;;14.50;99.90;;;;;;5045864;28;20048;-74
2022/08/22 05:11:17;;;;;;;11.25;4.68;;;14.60;99.90;;;;;;5047307;28;20048;-74
2022/08/22 05:13:56;;;;;;;8.85;4.60;;;14.50;99.90;;;;;;5082926;28;20040;-74
2022/08/22 05:16:27;;;;;;;10.45;4.28;;;14.50;99.90;;;;;;5083961;28;20495;-74
2022/08/22 05:19:00;;;;;;;9.80;4.60;;;14.50;99.90;;;;;;5085234;28;20471;-74
2022/08/22 05:21:32;;;;;;;9.50;4.18;;;14.60;99.90;;;;;;5092777;28;20490;-73
2022/08/22 05:24:04;;;;;;;12.70;4.57;;;14.60;99.90;;;;;;5076936;28;20126;-73
2022/08/22 05:26:36;;;;;;;16.58;4.65;;;14.70;99.90;;;;;;5086496;28;20123;-74
2022/08/22 05:29:07;;;;;;;9.77;4.38;;;14.60;99.90;;;;;;5085716;28;20040;-75
2022/08/22 05:31:48;;;;;;;7.97;4.03;;;14.70;99.90;;;;;;5086078;28;20114;-75
2022/08/22 05:34:27;;;;;;;8.98;4.30;;;14.80;99.90;;;;;;5089104;28;20085;-79
2022/08/22 05:37:16;;;;;;;8.20;4.15;;;14.80;99.90;;;;;;5086959;28;20043;-76
2022/08/22 05:39:47;;;;;;;9.88;4.30;;;14.90;99.90;;;;;;5068295;28;20046;-76
2022/08/22 05:42:23;;;;;;;21.73;4.85;;;15.00;99.90;;;;;;5065657;28;20043;-76
2022/08/22 05:44:49;;;;;;;10.90;4.90;;;15.10;99.90;;;;;;5089999;28;20470;-74
2022/08/22 05:47:43;;;;;;;14.10;4.95;;;15.10;99.90;;;;;;5087134;28;20052;-77
2022/08/22 05:50:22;;;;;;;13.05;6.10;;;15.20;99.90;;;;;;4998353;28;20057;-76
2022/08/22 05:53:09;;;;;;;15.00;5.80;;;15.40;99.90;;;;;;5004135;28;20530;-76
2022/08/22 05:56:09;;;;;;;15.02;6.00;;;15.50;99.90;;;;;;4986712;28;20328;-76
2022/08/22 05:58:49;;;;;;;14.13;6.30;;;15.70;99.90;;;;;;4927352;29;20082;-75
2022/08/22 06:01:32;;;;;;;16.10;5.90;;;15.80;99.90;;;;;;4922532;29;20140;-76
2022/08/22 06:04:19;;;;;;;16.58;5.65;;;15.90;99.90;;;;;;4925896;29;20445;-76
2022/08/22 06:07:22;;;;;;;12.20;5.63;;;16.00;99.90;;;;;;4945299;28;20162;-76
2022/08/22 06:10:24;;;;;;;13.90;5.57;;;16.10;99.90;;;;;;4919574;28;20054;-76
2022/08/22 06:13:08;;;;;;;11.07;5.93;;;16.30;99.90;;;;;;4921154;29;20051;-76
2022/08/22 06:16:06;;;;;;;13.27;5.85;;;16.40;99.90;;;;;;4938749;29;20053;-76
2022/08/22 06:18:38;;;;;;;12.70;6.10;;;16.50;99.90;;;;;;4875517;29;20551;-77
2022/08/22 06:21:16;;;;;;;22.73;6.20;;;16.60;99.90;;;;;;4892795;29;20930;-76
2022/08/22 06:23:47;;;;;;;18.13;6.07;;;16.70;99.90;;;;;;4873106;29;20400;-76
2022/08/22 06:26:14;;;;;;;13.60;6.35;;;16.80;99.90;;;;;;4876801;29;20056;-76
2022/08/22 06:28:44;;;;;;;21.00;6.32;;;16.90;99.90;;;;;;4926817;28;20063;-76
2022/08/22 06:31:22;;;;;;;17.75;6.50;;;17.10;99.90;;;;;;4924614;28;20055;-77
2022/08/22 06:34:11;;;;;;;18.35;6.65;;;17.20;99.90;;;;;;4924006;29;20134;-77
2022/08/22 06:36:39;;;;;;;18.95;5.80;;;17.30;99.90;;;;;;4979973;28;20502;-75
2022/08/22 06:39:24;;;;;;;18.55;5.70;;;17.40;99.90;;;;;;4985762;28;20050;-76
2022/08/22 06:41:58;;;;;;;23.65;6.32;;;17.40;99.90;;;;;;5000459;28;20062;-76
2022/08/22 06:44:34;;;;;;;20.98;6.43;;;17.70;99.90;;;;;;4996746;28;20057;-79
2022/08/22 06:47:04;;;;;;;13.65;5.13;;;17.60;99.90;;;;;;4976713;28;20045;-77
2022/08/22 06:49:33;;;;;;;16.40;5.70;;;17.80;99.90;;;;;;5003623;28;20049;-75
2022/08/22 06:52:25;;;;;;;19.00;5.78;;;17.80;99.90;;;;;;5005574;28;20374;-75
2022/08/22 06:54:59;;;;;;;18.40;5.00;;;18.00;99.90;;;;;;5031153;28;20066;-73
2022/08/22 06:57:41;;;;;;;20.00;5.53;;;18.10;99.90;;;;;;5086137;28;20344;-74
2022/08/22 07:00:12;;;;;;;12.65;4.82;;;18.30;99.90;;;;;;5075288;28;20441;-74
2022/08/22 07:02:54;;;;;;;24.83;5.60;;;18.40;99.90;;;;;;5087221;28;20566;-73
2022/08/22 07:05:24;;;;;;;20.83;5.22;;;18.40;99.90;;;;;;5083172;28;20055;-73
2022/08/22 07:07:51;;;;;;;20.33;4.57;;;18.60;99.90;;;;;;5077479;28;20053;-73
2022/08/22 07:10:20;;;;;;;18.17;4.13;;;18.70;99.90;;;;;;5074178;28;20466;-75
2022/08/22 07:12:52;;;;;;;16.30;4.07;;;18.70;99.90;;;;;;5083728;28;20051;-74
2022/08/22 07:15:38;;;;;;;12.98;3.60;;;18.80;99.90;;;;;;5089482;28;20051;-74
2022/08/22 07:18:08;;;;;;;12.93;3.40;;;18.90;99.90;;;;;;5089809;28;20053;-73
2022/08/22 07:20:44;;;;;;;15.55;3.20;;;18.90;99.90;;;;;;5064730;28;20067;-75
2022/08/22 07:23:25;;;;;;;10.68;2.97;;;19.00;99.90;;;;;;5080383;28;20467;-75
2022/08/22 07:26:13;;;;;;;13.82;3.08;;;19.00;99.90;;;;;;5079687;28;20051;-75
2022/08/22 07:28:50;;;;;;;14.82;3.10;;;19.00;99.90;;;;;;5063230;28;20493;-77
2022/08/22 07:31:34;;;;;;;13.52;3.53;;;19.10;99.90;;;;;;5086499;28;20209;-75
2022/08/22 07:34:16;;;;;;;14.10;3.13;;;19.10;99.90;;;;;;5084713;28;20052;-76
2022/08/22 07:37:07;;;;;;;9.60;2.80;;;19.10;99.90;;;;;;5069898;28;20055;-75
2022/08/22 07:40:04;;;;;;;15.73;3.33;;;19.20;99.90;;;;;;5069020;28;20047;-76
2022/08/22 07:43:09;;;;;;;14.68;3.28;;;19.20;99.90;;;;;;5062600;28;20122;-75
2022/08/22 07:45:48;;;;;;;10.38;3.03;;;19.30;99.90;;;;;;5001519;28;20183;-76
2022/08/22 07:48:20;;;;;;;17.10;3.33;;;19.30;99.90;;;;;;4989382;28;20631;-76
2022/08/22 07:51:27;;;;;;;16.33;3.10;;;19.40;99.90;;;;;;5017920;28;20055;-75
2022/08/22 07:54:03;;;;;;;14.15;2.75;;;19.50;99.90;;;;;;4960081;28;20078;-75
2022/08/22 07:56:38;;;;;;;13.95;3.00;;;19.50;99.90;;;;;;4950191;28;20158;-75
2022/08/22 07:59:09;;;;;;;12.07;2.95;;;19.60;99.90;;;;;;4962473;28;20043;-74
2022/08/22 08:01:35;;;;;;;16.30;3.25;;;19.70;99.90;;;;;;4965393;28;20390;-74
2022/08/22 08:04:12;;;;;;;14.23;2.92;;;19.80;99.90;;;;;;4950851;28;20043;-75
2022/08/22 08:06:39;;;;;;;11.48;2.90;;;19.90;99.90;;;;;;4937446;28;20091;-74
2022/08/22 08:09:11;;;;;;;20.83;3.22;;;20.00;99.90;;;;;;4964024;28;20042;-75
2022/08/22 08:11:41;;;;;;;16.77;3.35;;;20.10;99.90;;;;;;4968301;28;20054;-74
2022/08/22 08:14:09;;;;;;;17.42;3.58;;;20.10;99.90;;;;;;4965298;28;20039;-73
2022/08/22 08:17:10;;;;;;;12.07;2.88;;;20.20;99.90;;;;;;4971735;28;20062;-74
2022/08/22 08:19:40;;;;;;;15.00;3.53;;;20.20;99.90;;;;;;4902388;28;20491;-74
2022/08/22 08:22:06;;;;;;;14.73;2.90;;;20.20;99.90;;;;;;4922727;29;20055;-73
2022/08/22 08:24:36;;;;;;;11.68;2.63;;;20.20;99.90;;;;;;4969874;28;20489;-74
2022/08/22 08:29:57;;;;;;;14.25;3.10;;;20.20;99.90;;;;;;4995635;28;20513;-74
2022/08/22 08:32:29;;;;;;;11.25;2.80;;;20.30;99.90;;;;;;5003272;28;20489;-74
2022/08/22 08:34:56;;;;;;;13.90;3.33;;;20.30;99.90;;;;;;5011246;28;20060;-74
2022/08/22 08:37:42;;;;;;;18.90;3.08;;;20.30;99.90;;;;;;5014268;28;20045;-74
2022/08/22 08:40:24;;;;;;;18.20;3.45;;;20.40;99.90;;;;;;5009380;28;20055;-75
2022/08/22 08:46:06;;;;;;;11.13;3.00;;;20.40;99.90;;;;;;5011509;28;20136;-72
2022/08/22 08:48:47;;;;;;;15.60;3.10;;;20.50;99.90;;;;;;5001533;28;20049;-73
2022/08/22 08:51:43;;;;;;;15.30;3.30;;;20.50;99.90;;;;;;5009985;28;20144;-74
2022/08/22 08:54:23;;;;;;;11.63;2.83;;;20.60;99.90;;;;;;5002775;28;20079;-73
2022/08/22 08:57:17;;;;;;;15.02;3.45;;;20.50;99.90;;;;;;5067592;28;20043;-73
2022/08/22 08:59:58;;;;;;;14.55;3.08;;;20.60;99.90;;;;;;5089920;28;20054;-73
2022/08/22 09:02:43;;;;;;;20.20;4.10;;;20.60;99.90;;;;;;5071484;28;20044;-72
2022/08/22 09:05:15;;;;;;;12.98;2.95;;;20.60;99.90;;;;;;5087305;28;20040;-72
2022/08/22 09:07:59;;;;;;;15.68;2.97;;;20.60;99.90;;;;;;5092636;28;20040;-71
2022/08/22 09:11:04;;;;;;;12.65;2.88;;;20.80;99.90;;;;;;5087656;28;20744;-72
2022/08/22 09:13:54;;;;;;;17.70;2.85;;;21.00;99.90;;;;;;5086009;28;20051;-72
2022/08/22 09:16:23;;;;;;;15.77;3.15;;;21.20;99.90;;;;;;5076670;28;20047;-75
2022/08/22 09:19:07;;;;;;;12.85;2.95;;;21.30;99.90;;;;;;5093685;28;20082;-74
2022/08/22 09:21:58;;;;;;;16.97;3.03;;;21.60;99.90;;;;;;5090492;28;20582;-73
2022/08/22 09:24:44;;;;;;;14.38;3.05;;;21.50;99.90;;;;;;5091619;28;20304;-75
2022/08/22 09:27:23;;;;;;;15.07;2.70;;;21.60;99.90;;;;;;5088076;27;20055;-75
2022/08/22 09:29:58;;;;;;;12.15;2.65;;;21.70;99.90;;;;;;5090205;28;20047;-75
2022/08/22 09:32:30;;;;;;;21.25;3.65;;;21.50;99.90;;;;;;5092851;28;20062;-76
2022/08/22 09:35:16;;;;;;;25.60;3.22;;;21.50;99.90;;;;;;5075348;28;20039;-73
2022/08/22 09:38:16;;;;;;;14.13;2.95;;;21.50;99.90;;;;;;4999738;28;20049;-75
2022/08/22 09:40:49;;;;;;;14.07;2.88;;;21.50;99.90;;;;;;5005943;28;20445;-73
2022/08/22 09:43:28;;;;;;;11.38;2.78;;;21.60;99.90;;;;;;5007905;28;20062;-73
2022/08/22 09:46:18;;;;;;;14.70;2.50;;;21.70;99.90;;;;;;4996764;28;20077;-73
2022/08/22 09:49:02;;;;;;;23.58;2.97;;;21.90;99.90;;;;;;4998450;28;20124;-74
2022/08/22 09:51:39;;;;;;;13.87;2.87;;;22.00;99.90;;;;;;4978214;28;20382;-73
2022/08/22 09:54:13;;;;;;;14.90;2.97;;;22.00;99.90;;;;;;4989223;28;20037;-74
2022/08/22 09:56:58;;;;;;;11.23;3.15;;;22.00;99.90;;;;;;4966477;28;20125;-75
2022/08/22 09:59:45;;;;;;;10.18;2.75;;;22.00;99.90;;;;;;4971583;28;20043;-74
2022/08/22 10:02:26;;;;;;;15.27;3.08;;;22.00;99.90;;;;;;4989558;28;20087;-74
2022/08/22 10:05:34;;;;;;;12.98;2.42;;;22.20;99.90;;;;;;4989331;28;20060;-74
2022/08/22 10:08:14;;;;;;;11.82;3.08;;;22.20;99.90;;;;;;4985354;28;20061;-74
2022/08/22 10:11:28;;;;;;;11.48;2.42;;;22.10;99.90;;;;;;4991876;28;20077;-73
2022/08/22 10:13:58;;;;;;;18.25;3.08;;;22.10;99.90;;;;;;4920614;28;20131;-74
2022/08/22 10:16:44;;;;;;;11.85;3.13;;;22.40;99.90;;;;;;4976509;28;20038;-73
2022/08/22 10:22:58;;;;;;;9.88;2.70;;;22.90;99.90;;;;;;5003968;28;20129;-72
2022/08/22 10:25:59;;;;;;;10.25;2.92;;;23.00;99.90;;;;;;4965505;28;20054;-73
2022/08/22 10:28:54;;;;;;;10.75;3.53;;;23.10;99.90;;;;;;4978898;28;20046;-74
2022/08/22 10:31:35;;;;;;;13.10;3.42;;;23.30;99.90;;;;;;4982912;28;20120;-74
2022/08/22 10:34:08;;;;;;;10.82;3.10;;;23.30;99.90;;;;;;4986188;28;20040;-74
2022/08/22 10:37:06;;;;;;;21.20;3.00;;;23.50;99.90;;;;;;4991170;28;20049;-73
2022/08/22 10:39:48;;;;;;;10.95;3.47;;;23.60;99.90;;;;;;5006319;28;20135;-74
2022/08/22 10:42:32;;;;;;;12.60;2.83;;;23.60;99.90;;;;;;4998681;28;20052;-73
2022/08/22 10:45:10;;;;;;;11.18;2.97;;;23.80;99.90;;;;;;4980497;28;20045;-73
2022/08/22 10:48:02;;;;;;;8.55;2.67;;;24.10;99.90;;;;;;4988145;28;20106;-74
2022/08/22 10:50:37;;;;;;;14.18;3.17;;;24.50;99.90;;;;;;5039015;28;20047;-74
2022/08/22 10:53:34;;;;;;;12.65;2.78;;;24.70;99.90;;;;;;5082960;28;20078;-74
2022/08/22 10:56:07;;;;;;;9.50;2.58;;;24.80;99.90;;;;;;5083507;28;20054;-75
2022/08/22 10:58:51;;;;;;;7.43;2.55;;;25.00;99.90;;;;;;5083436;28;20118;-73
2022/08/22 11:01:18;;;;;;;17.05;2.58;;;25.40;99.90;;;;;;5092111;28;20073;-73
2022/08/22 11:04:04;;;;;;;10.05;2.40;;;25.50;99.90;;;;;;5083023;28;20081;-74
2022/08/22 11:07:12;;;;;;;11.38;2.90;;;25.90;99.90;;;;;;5077530;28;20044;-74
2022/08/22 11:09:52;;;;;;;8.57;2.28;;;26.10;99.90;;;;;;4982230;28;20132;-75
2022/08/22 11:12:27;;;;;;;9.43;2.58;;;26.50;99.90;;;;;;4999869;28;20041;-74
2022/08/22 11:15:30;;;;;;;11.85;2.35;;;26.60;99.90;;;;;;4993080;28;20770;-73
2022/08/22 11:18:15;;;;;;;6.75;2.45;;;26.90;99.90;;;;;;4995296;28;20124;-74
2022/08/22 11:21:03;;;;;;;9.20;2.55;;;26.50;99.90;;;;;;4997119;28;20123;-74
2022/08/22 11:23:36;;;;;;;8.10;2.45;;;26.80;99.90;;;;;;4982081;28;20095;-74
2022/08/22 11:26:21;;;;;;;11.80;2.63;;;26.60;99.90;;;;;;5000696;28;20034;-74
2022/08/22 11:28:59;;;;;;;8.95;2.75;;;26.80;99.90;;;;;;4987066;28;20038;-74
2022/08/22 11:31:46;;;;;;;11.95;2.47;;;26.60;99.90;;;;;;5018692;28;20060;-73
2022/08/22 11:34:30;;;;;;;9.52;2.00;;;26.70;99.90;;;;;;5013002;28;20046;-74
2022/08/22 11:37:32;;;;;;;10.50;2.30;;;26.60;99.50;;;;;;5011189;28;20061;-74
2022/08/22 11:40:19;;;;;;;8.98;2.70;;;27.10;99.90;;;;;;4957977;28;20311;-73
2022/08/22 11:42:48;;;;;;;7.20;2.30;;;27.10;99.60;;;;;;4974310;28;20068;-73
2022/08/22 11:45:21;;;;;;;7.90;2.30;;;27.00;99.30;;;;;;4983032;28;20429;-73
2022/08/22 11:47:59;;;;;;;11.27;2.37;;;27.40;99.50;;;;;;4975151;28;20081;-74
2022/08/22 11:50:42;;;;;;;7.45;2.40;;;27.50;99.10;;;;;;4982426;28;20068;-74
2022/08/22 11:53:36;;;;;;;10.50;2.38;;;27.60;99.70;;;;;;4993177;28;20065;-73
2022/08/22 11:56:26;;;;;;;10.82;2.60;;;27.60;99.30;;;;;;4978401;28;20420;-73
2022/08/22 11:59:17;;;;;;;9.15;2.20;;;27.60;98.60;;;;;;4977960;28;20071;-74
2022/08/22 12:01:51;;;;;;;8.60;2.30;;;28.00;99.30;;;;;;4999987;28;20073;-73
2022/08/22 12:04:44;;;;;;;8.95;2.35;;;28.00;99.50;;;;;;4988945;28;20470;-74
2022/08/22 12:07:22;;;;;;;10.65;2.38;;;28.30;99.00;;;;;;4988418;28;20501;-73
2022/08/22 12:10:02;;;;;;;6.78;2.22;;;28.40;97.70;;;;;;4982370;28;20517;-72
2022/08/22 12:12:47;;;;;;;8.52;2.50;;;28.00;97.90;;;;;;4985836;28;20046;-73
2022/08/22 12:15:24;;;;;;;8.65;2.85;;;27.50;98.30;;;;;;4961745;28;20141;-73
2022/08/22 12:18:23;;;;;;;8.43;2.38;;;28.00;98.70;;;;;;5088382;28;20122;-74
2022/08/22 12:21:10;;;;;;;9.50;2.30;;;28.10;97.00;;;;;;5088447;28;20380;-73
2022/08/22 12:23:48;;;;;;;8.23;2.45;;;28.30;97.70;;;;;;5088296;28;20405;-73
2022/08/22 12:26:19;;;;;;;7.53;2.20;;;27.90;97.10;;;;;;5091084;28;20044;-73
2022/08/22 12:29:02;;;;;;;9.30;2.22;;;27.70;97.50;;;;;;5088486;28;20131;-73
2022/08/22 12:31:57;;;;;;;7.83;1.87;;;28.10;97.80;;;;;;5089667;28;20047;-73
2022/08/22 12:34:38;;;;;;;9.25;2.22;;;27.70;97.20;;;;;;5089162;28;20050;-74
2022/08/22 12:37:33;;;;;;;7.43;2.15;;;27.70;97.30;;;;;;5074219;28;20094;-74
2022/08/22 12:40:36;;;;;;;6.68;1.90;;;27.90;96.50;;;;;;5089188;28;20048;-74
2022/08/22 12:43:17;;;;;;;10.02;2.78;;;27.80;97.00;;;;;;5086120;28;20436;-74
2022/08/22 12:46:09;;;;;;;9.90;2.60;;;27.40;97.10;;;;;;5067373;28;20075;-73
2022/08/22 12:48:53;;;;;;;8.75;2.40;;;27.30;97.30;;;;;;5071655;28;20079;-73
2022/08/22 12:51:48;;;;;;;7.68;2.40;;;27.30;97.60;;;;;;5089482;28;20495;-73
2022/08/22 12:54:31;;;;;;;8.70;2.20;;;27.70;97.80;;;;;;5059617;28;20044;-73
2022/08/22 12:57:11;;;;;;;7.03;2.40;;;27.90;97.70;;;;;;5091415;28;20138;-73
2022/08/22 12:59:44;;;;;;;8.25;2.28;;;27.60;97.00;;;;;;5071312;28;20043;-74
2022/08/22 13:02:15;;;;;;;10.80;2.28;;;27.60;96.80;;;;;;5077237;28;20046;-73
2022/08/22 13:04:48;;;;;;;11.43;2.38;;;27.60;97.50;;;;;;5072228;28;20070;-72
2022/08/22 13:07:29;;;;;;;11.60;2.60;;;27.70;97.20;;;;;;5095152;28;20039;-72
2022/08/22 13:10:13;;;;;;;7.07;2.50;;;28.10;96.70;;;;;;5088377;27;20044;-72
2022/08/22 13:12:43;;;;;;;6.65;1.88;;;27.90;97.00;;;;;;5089973;28;20047;-73
2022/08/22 13:15:31;;;;;;;11.00;2.25;;;27.90;96.60;;;;;;5066971;28;20436;-74
2022/08/22 13:18:05;;;;;;;8.32;2.10;;;28.40;96.80;;;;;;5084588;28;20051;-75
2022/08/22 13:20:36;;;;;;;5.22;1.83;;;28.50;96.30;;;;;;5063911;28;20052;-73
2022/08/22 13:23:25;;;;;;;5.13;1.70;;;29.10;96.30;;;;;;5081113;28;20058;-74
2022/08/22 13:26:24;;;;;;;6.18;2.15;;;30.10;96.10;;;;;;5085737;28;20146;-75
2022/08/22 13:29:00;;;;;;;5.97;1.90;;;30.40;94.50;;;;;;5081009;28;20983;-74
2022/08/22 13:31:30;;;;;;;6.75;1.77;;;29.90;93.70;;;;;;5081843;27;20079;-74
2022/08/22 13:34:11;;;;;;;5.55;1.80;;;30.50;94.50;;;;;;5083140;28;20048;-75
2022/08/22 13:36:43;;;;;;;11.20;2.35;;;30.40;93.60;;;;;;5061933;28;20448;-76
2022/08/22 13:39:12;;;;;;;6.43;1.80;;;29.80;93.60;;;;;;5064301;28;20471;-76
2022/08/22 13:41:54;;;;;;;7.72;2.00;;;30.30;93.80;;;;;;5060099;28;20067;-75
2022/08/22 13:44:45;;;;;;;8.95;2.45;;;29.90;93.00;;;;;;5075481;28;20043;-75
2022/08/22 13:47:18;;;;;;;8.70;2.45;;;30.30;92.90;;;;;;5082122;28;20047;-74
2022/08/22 13:50:03;;;;;;;6.28;1.98;;;30.20;93.10;;;;;;5069966;28;20950;-76
2022/08/22 13:52:40;;;;;;;11.30;2.35;;;30.10;93.00;;;;;;5068618;28;21281;-76
2022/08/22 13:55:12;;;;;;;4.82;1.83;;;30.10;93.40;;;;;;5082430;28;20044;-75
2022/08/22 13:57:47;;;;;;;9.30;2.03;;;30.30;93.20;;;;;;5067432;28;20070;-77
2022/08/22 14:00:35;;;;;;;11.45;2.40;;;30.30;92.50;;;;;;5064236;28;20043;-77
2022/08/22 14:03:18;;;;;;;5.50;1.80;;;30.30;91.90;;;;;;5066292;28;20052;-77
2022/08/22 14:05:50;;;;;;;6.63;2.28;;;30.30;93.20;;;;;;5068289;28;20499;-76
2022/08/22 14:08:33;;;;;;;8.88;2.63;;;30.40;92.50;;;;;;5067886;28;20054;-78